Detall de PIREP

Printer-friendly versionPDF version

[2014/01/08 08:47:00]
Flight IATA:CT2104
Pilot Number:041
Company ICAO:CAT
Aircraft Type:F70/E
PAX:60
Aircraft Registration:DA
Departing Airport: LEVC
Destination Airport: LEBB
Alternate Airport:LEBL
Online: VATSIM
Route:CENTA A33 CJN R10 PPN G23 CEGAM


Flight Level:FL240
No Slew and time accel
No pause
Crash detect
Detect pilot in Cockpit between each 30 and 45 minutes
08:47 Zero fuel Weight: 71392 Lbs, Fuel Weight: 10498 Lbs
08:47 VATSIM:LEVC 080830Z VRB02KT 9999 FEW060 05/M00 Q1024 NOSIG
08:47 VATSIM:LEBB 080830Z 18009KT 140V210 CAVOK 14/07 Q1017 NOSIG
08:47 VOICE CATALONIAN
08:59 Parking Brakes off
09:04 Take-off
09:04 Take off Weight: 81479 Lbs
09:04 Wind: 303º @ 003 Knots Heading: 295º
09:04 POS N39º 29´ 25´´ W000º 29´ 04´´
09:04 Gear Up: 163 Knots
09:04 Flaps:1 at 163 Knots
09:04 Flaps:0 at 160 Knots
09:19 Wind:235º@040 Knots Heading: 293º Ground Speed: 324 Knots Altitude 16879 ft
09:23 TOC
09:23 Fuel Weight: 8080 Lb
09:34 Wind:221º@042 Knots Heading: 007º Ground Speed: 422 Knots Altitude 24366 ft
09:49 Wind:225º@044 Knots Heading: 299º Ground Speed: 376 Knots Altitude 24242 ft
09:50 TOD
09:50 Fuel Weight: 5905 Lb
10:01 Flaps:1 at 194 Knots
10:02 Flaps:2 at 189 Knots
10:04 Wind:189º@012 Knots Heading: 119º Ground Speed: 151 Knots Altitude 3021 ft
10:04 Flaps:3 at 149 Knots
10:04 Flaps:2 at 146 Knots
10:04 Flaps:3 at 146 Knots
10:04 Flaps:2 at 141 Knots
10:04 Flaps:3 at 141 Knots
10:04 Gear Down: 141 Knots
10:05 Flaps:4 at 136 Knots
10:08 TouchDown:Rate -29 ft/min Speed: 116 Knots
10:09 VATSIM:LEBB 081000Z 16007KT CAVOK 16/07 Q1018 NOSIG
10:09 Land
10:09 Wind:182º@009 Knots
10:09 Heading: 115º
10:09 Flight Duration: 01:05
10:09 Landing Weight: 76501 Lbs
10:09 POS N43º 18´ 00´´ W002º 54´ 29´´
10:12Parking brakes on
10:12 Block to Block Duration: 01:13
10:12 Final Fuel: 4988 Lbls
10:12 Spent Fuel: 5509 Lbls
10:12 Flight Length: 350 NM
10:12 TOD Land Length: 71 NM

Exportar CSV

Powered by Drupal - Modified by Danger4k